Time;durP1;ratioP1;P1;durP2;ratioP2;P2;SDS_P1;SDS_P2;PMS_P1;PMS_P2;Temp;Humidity;BMP_temperature;BMP_pressure;BME280_temperature;BME280_humidity;BME280_pressure;Samples;Min_cycle;Max_cycle;Signal;HPM_P1;HPM_P2
2022/06/25 00:01:29;;;;;;;1.17;1.08;;;22.40;84.80;;;;;;5010898;28;20087;-64
2022/06/25 00:03:58;;;;;;;1.42;1.17;;;22.40;84.80;;;;;;5010932;28;20534;-63
2022/06/25 00:06:23;;;;;;;1.77;1.27;;;22.40;84.80;;;;;;5012900;28;20092;-63
2022/06/25 00:08:50;;;;;;;1.35;1.10;;;22.40;84.90;;;;;;5014773;28;20119;-63
2022/06/25 00:14:10;;;;;;;1.13;1.02;;;22.40;84.90;;;;;;4967198;28;20075;-63
2022/06/25 00:16:36;;;;;;;1.70;1.20;;;22.40;84.90;;;;;;5014776;28;20464;-64
2022/06/25 00:19:03;;;;;;;1.05;0.95;;;22.40;84.90;;;;;;5014284;28;20042;-63
2022/06/25 00:21:28;;;;;;;1.88;1.23;;;22.40;84.90;;;;;;5014880;28;20050;-64
2022/06/25 00:23:54;;;;;;;1.17;1.08;;;22.40;84.90;;;;;;5014440;28;20053;-63
2022/06/25 00:26:20;;;;;;;1.20;1.10;;;22.40;84.90;;;;;;5013411;28;20892;-64
2022/06/25 00:28:45;;;;;;;1.42;1.10;;;22.40;85.00;;;;;;5013444;28;20077;-63
2022/06/25 00:31:11;;;;;;;1.33;1.17;;;22.40;84.90;;;;;;5013916;28;20134;-63
2022/06/25 00:33:37;;;;;;;1.70;1.20;;;22.40;85.50;;;;;;5014526;28;20468;-64
2022/06/25 00:36:03;;;;;;;1.60;1.20;;;22.40;85.00;;;;;;4996544;28;20471;-63
2022/06/25 00:38:28;;;;;;;2.10;1.33;;;22.40;85.00;;;;;;5013971;28;20049;-63
2022/06/25 00:40:54;;;;;;;1.25;1.15;;;22.40;84.90;;;;;;5013338;28;20060;-63
2022/06/25 00:43:20;;;;;;;1.08;1.02;;;22.40;85.00;;;;;;5013461;28;20081;-64
2022/06/25 00:45:45;;;;;;;1.30;1.20;;;22.40;84.90;;;;;;5013743;28;20089;-64
2022/06/25 00:48:11;;;;;;;1.20;1.10;;;22.50;85.00;;;;;;4996303;28;20046;-64
2022/06/25 00:50:37;;;;;;;1.00;0.90;;;22.40;84.90;;;;;;5014174;28;20120;-64
2022/06/25 00:53:04;;;;;;;1.02;0.98;;;22.40;84.90;;;;;;5014040;28;20038;-63
2022/06/25 00:55:30;;;;;;;1.20;1.10;;;22.40;84.90;;;;;;5013208;28;20056;-64
2022/06/25 00:58:01;;;;;;;1.65;1.27;;;22.40;85.00;;;;;;5014081;28;20049;-63
2022/06/25 01:00:27;;;;;;;1.23;1.13;;;22.40;85.00;;;;;;5012975;28;20045;-63
2022/06/25 01:02:53;;;;;;;1.13;1.02;;;22.40;85.00;;;;;;5014153;28;20053;-64
2022/06/25 01:05:22;;;;;;;1.40;1.30;;;22.40;85.00;;;;;;5013336;28;20046;-63
2022/06/25 01:07:48;;;;;;;1.10;1.00;;;22.40;85.00;;;;;;5014033;28;20092;-63
2022/06/25 01:10:15;;;;;;;1.45;1.20;;;22.40;85.00;;;;;;4994719;28;20067;-63
2022/06/25 01:12:42;;;;;;;1.42;1.27;;;22.40;85.00;;;;;;5013954;28;20049;-63
2022/06/25 01:15:17;;;;;;;1.30;1.17;;;22.40;85.00;;;;;;5012310;28;20049;-63
2022/06/25 01:17:45;;;;;;;0.90;0.90;;;22.40;85.10;;;;;;5012779;28;20129;-64
2022/06/25 01:20:12;;;;;;;1.67;1.20;;;22.40;85.10;;;;;;4995797;28;20054;-63
2022/06/25 01:22:38;;;;;;;1.67;1.23;;;22.40;85.10;;;;;;5013829;28;20129;-64
2022/06/25 01:25:07;;;;;;;1.65;1.20;;;22.40;85.10;;;;;;5012615;28;20185;-64
2022/06/25 01:27:33;;;;;;;1.05;1.00;;;22.40;85.10;;;;;;5013532;28;20073;-63
2022/06/25 01:29:59;;;;;;;1.40;1.27;;;22.40;85.10;;;;;;5012702;28;20555;-64
2022/06/25 01:32:25;;;;;;;1.73;1.33;;;22.40;85.20;;;;;;5012930;28;20125;-64
2022/06/25 01:34:51;;;;;;;1.27;0.98;;;22.40;85.20;;;;;;5013217;28;20133;-63
2022/06/25 01:37:17;;;;;;;1.10;1.05;;;22.40;85.10;;;;;;5012932;28;20054;-63
2022/06/25 01:39:42;;;;;;;1.60;1.15;;;22.40;85.20;;;;;;5012147;28;20542;-64
2022/06/25 01:42:58;;;;;;;1.20;1.10;;;22.30;85.10;;;;;;5012858;28;20124;-63
2022/06/25 01:44:53;;;;;;;1.00;0.90;;;22.30;85.10;;;;;;5012225;28;20442;-63
2022/06/25 01:47:19;;;;;;;1.30;1.20;;;22.40;85.80;;;;;;5012598;28;20046;-63
2022/06/25 01:49:45;;;;;;;2.17;1.27;;;22.30;85.10;;;;;;5013042;28;20042;-63
2022/06/25 01:52:13;;;;;;;1.50;1.10;;;22.30;85.20;;;;;;5012647;28;20049;-63
2022/06/25 01:54:39;;;;;;;2.03;1.25;;;22.30;85.80;;;;;;5011965;28;20056;-63
2022/06/25 01:57:05;;;;;;;1.20;1.10;;;22.30;85.20;;;;;;5013006;28;20463;-63
2022/06/25 01:59:31;;;;;;;1.00;1.00;;;22.30;85.20;;;;;;5011490;28;20119;-63
2022/06/25 02:01:56;;;;;;;1.13;1.00;;;22.30;85.20;;;;;;5012687;28;20041;-64
2022/06/25 02:04:22;;;;;;;1.00;1.00;;;22.30;85.20;;;;;;5012197;28;20502;-64
2022/06/25 02:06:48;;;;;;;1.73;1.17;;;22.30;85.20;;;;;;5012503;28;20041;-64
2022/06/25 02:09:13;;;;;;;1.48;1.00;;;22.30;85.20;;;;;;5011180;28;20049;-63
2022/06/25 02:11:39;;;;;;;1.10;1.00;;;22.30;85.30;;;;;;5012670;28;20053;-63
2022/06/25 02:14:05;;;;;;;1.65;1.15;;;22.30;85.20;;;;;;5011951;28;20128;-64
2022/06/25 02:16:30;;;;;;;1.40;1.20;;;22.30;85.90;;;;;;5012014;28;20049;-63
2022/06/25 02:18:56;;;;;;;1.73;1.33;;;22.30;85.30;;;;;;4995053;28;20050;-63
2022/06/25 02:21:22;;;;;;;1.15;0.98;;;22.30;85.30;;;;;;4994255;28;20049;-63
2022/06/25 02:23:47;;;;;;;1.30;1.20;;;22.30;85.30;;;;;;5012362;28;20105;-64
2022/06/25 02:26:13;;;;;;;1.73;1.30;;;22.30;85.30;;;;;;5010985;28;20117;-63
2022/06/25 02:28:39;;;;;;;1.42;1.10;;;22.30;85.30;;;;;;4993846;28;20049;-63
2022/06/25 02:31:04;;;;;;;1.42;1.30;;;22.30;85.40;;;;;;5012539;28;20053;-64
2022/06/25 02:33:30;;;;;;;1.23;1.02;;;22.30;85.40;;;;;;5012028;28;20697;-63
2022/06/25 02:35:55;;;;;;;1.20;1.10;;;22.30;85.40;;;;;;5012227;28;20042;-64
2022/06/25 02:38:21;;;;;;;1.50;1.08;;;22.30;85.40;;;;;;5011394;28;20048;-63
2022/06/25 02:40:47;;;;;;;1.30;1.10;;;22.30;85.40;;;;;;5010882;28;20116;-63
2022/06/25 02:43:13;;;;;;;1.92;1.38;;;22.30;85.40;;;;;;5011204;28;20554;-63
2022/06/25 02:45:38;;;;;;;1.00;1.00;;;22.30;85.50;;;;;;5011624;28;20120;-64
2022/06/25 02:48:04;;;;;;;1.20;1.10;;;22.30;85.50;;;;;;5012134;28;20040;-64
2022/06/25 02:50:30;;;;;;;1.48;1.20;;;22.30;85.40;;;;;;5011409;28;20049;-63
2022/06/25 02:52:56;;;;;;;1.98;1.10;;;22.30;85.50;;;;;;5012066;28;20042;-63
2022/06/25 02:58:54;;;;;;;1.42;1.15;;;22.30;85.50;;;;;;5010205;28;20045;-63
2022/06/25 03:00:52;;;;;;;1.35;1.00;;;22.30;85.50;;;;;;5011136;28;20052;-63
2022/06/25 03:03:17;;;;;;;0.98;0.95;;;22.30;85.50;;;;;;4993811;28;20121;-63
2022/06/25 03:05:43;;;;;;;1.13;1.02;;;22.30;85.50;;;;;;5011536;28;20050;-64
2022/06/25 03:08:09;;;;;;;1.08;1.00;;;22.30;85.50;;;;;;5011846;28;20041;-63
2022/06/25 03:10:34;;;;;;;1.38;1.27;;;22.30;85.50;;;;;;5009817;28;20697;-63
2022/06/25 03:13:00;;;;;;;0.90;0.90;;;22.30;85.50;;;;;;5011656;28;20522;-63
2022/06/25 03:15:26;;;;;;;1.10;0.90;;;22.30;85.50;;;;;;5010300;28;20375;-63
2022/06/25 03:17:51;;;;;;;1.27;1.10;;;22.30;85.50;;;;;;4978237;28;20041;-63
2022/06/25 03:20:17;;;;;;;1.77;1.20;;;22.30;85.60;;;;;;5010960;28;20050;-63
2022/06/25 03:22:42;;;;;;;1.40;1.30;;;22.30;85.60;;;;;;5011611;28;20088;-63
2022/06/25 03:25:08;;;;;;;1.48;1.17;;;22.30;85.50;;;;;;5010463;28;20038;-64
2022/06/25 03:27:34;;;;;;;1.25;1.10;;;22.30;85.60;;;;;;5010896;28;20104;-63
2022/06/25 03:30:00;;;;;;;1.55;1.25;;;22.30;85.60;;;;;;5010523;28;20108;-63
2022/06/25 03:32:25;;;;;;;1.33;1.20;;;22.20;85.50;;;;;;5010804;28;20076;-64
2022/06/25 03:34:51;;;;;;;1.27;1.10;;;22.30;85.60;;;;;;5010886;28;20042;-64
2022/06/25 03:37:17;;;;;;;1.20;1.10;;;22.30;85.60;;;;;;5010784;28;20053;-63
2022/06/25 03:39:43;;;;;;;1.63;1.40;;;22.30;85.60;;;;;;5009706;28;20053;-64
2022/06/25 03:42:08;;;;;;;1.20;1.10;;;22.30;85.60;;;;;;5010794;28;20060;-64
2022/06/25 03:44:34;;;;;;;1.30;1.20;;;22.30;86.20;;;;;;5009865;28;20050;-63
2022/06/25 03:47:00;;;;;;;1.33;1.20;;;22.30;85.70;;;;;;5011155;28;20084;-64
2022/06/25 03:49:25;;;;;;;1.10;1.00;;;22.20;85.60;;;;;;5010501;28;20161;-64
2022/06/25 03:51:51;;;;;;;1.50;1.10;;;22.20;85.60;;;;;;5011280;28;20054;-64
2022/06/25 03:54:17;;;;;;;1.27;1.17;;;22.30;85.60;;;;;;4992176;28;20042;-63
2022/06/25 03:56:43;;;;;;;1.33;1.13;;;22.20;85.60;;;;;;5011110;28;20124;-63
2022/06/25 03:59:09;;;;;;;1.38;1.27;;;22.20;85.60;;;;;;5010067;28;20049;-64
2022/06/25 04:01:34;;;;;;;1.30;1.20;;;22.30;85.70;;;;;;5010404;28;20116;-64
2022/06/25 04:04:00;;;;;;;1.52;1.10;;;22.30;85.70;;;;;;5010814;28;20097;-63
2022/06/25 04:06:26;;;;;;;1.42;1.10;;;22.30;85.70;;;;;;5010478;28;20042;-64
2022/06/25 04:08:51;;;;;;;1.60;0.98;;;22.30;85.70;;;;;;5010733;28;20042;-64
2022/06/25 04:11:17;;;;;;;1.02;0.95;;;22.30;85.60;;;;;;5009832;28;20472;-63
2022/06/25 04:13:43;;;;;;;1.20;1.02;;;22.30;85.70;;;;;;5009939;28;20344;-65
2022/06/25 04:16:09;;;;;;;1.05;0.95;;;22.30;85.70;;;;;;5010789;28;20041;-64
2022/06/25 04:18:35;;;;;;;1.30;1.10;;;22.30;85.70;;;;;;5010484;28;20041;-65
2022/06/25 04:21:01;;;;;;;1.42;1.08;;;22.30;85.60;;;;;;5010657;28;20052;-65
2022/06/25 04:23:27;;;;;;;1.42;1.20;;;22.30;85.60;;;;;;5010407;28;20168;-65
2022/06/25 04:25:53;;;;;;;1.20;1.00;;;22.30;85.70;;;;;;5009830;28;20364;-65
2022/06/25 04:31:03;;;;;;;1.10;1.00;;;22.30;85.70;;;;;;5010616;28;20052;-65
2022/06/25 04:33:29;;;;;;;1.70;1.25;;;22.30;85.70;;;;;;5010209;28;20041;-65
2022/06/25 04:35:54;;;;;;;1.02;0.90;;;22.30;85.70;;;;;;5010719;28;20204;-65
2022/06/25 04:38:21;;;;;;;1.80;1.05;;;22.30;85.70;;;;;;4992928;28;20042;-63
2022/06/25 04:40:47;;;;;;;1.40;1.10;;;22.30;85.70;;;;;;5009616;28;20383;-65
2022/06/25 04:43:13;;;;;;;1.02;0.90;;;22.30;85.70;;;;;;5010254;28;20050;-64
2022/06/25 04:45:38;;;;;;;1.52;1.10;;;22.30;85.70;;;;;;5009882;28;20644;-65
2022/06/25 04:48:05;;;;;;;1.13;1.02;;;22.30;86.40;;;;;;5010715;28;20046;-65
2022/06/25 04:50:30;;;;;;;1.20;1.10;;;22.30;85.70;;;;;;5009985;28;20050;-65
2022/06/25 04:52:56;;;;;;;1.10;1.00;;;22.40;85.70;;;;;;4996280;28;20042;-64
2022/06/25 04:55:22;;;;;;;1.25;1.13;;;22.40;85.70;;;;;;4995043;28;20064;-63
2022/06/25 04:57:48;;;;;;;1.30;1.15;;;22.40;85.80;;;;;;5014240;28;20042;-65
2022/06/25 05:00:14;;;;;;;3.80;1.13;;;22.40;85.70;;;;;;4995575;28;20056;-65
2022/06/25 05:02:39;;;;;;;1.25;1.00;;;22.40;85.80;;;;;;5013390;28;20042;-65
2022/06/25 05:05:06;;;;;;;1.88;1.00;;;22.40;85.80;;;;;;4995808;28;20511;-65
2022/06/25 05:07:32;;;;;;;2.33;1.17;;;22.40;85.70;;;;;;5013400;28;20037;-65
2022/06/25 05:09:58;;;;;;;1.10;1.05;;;22.40;85.70;;;;;;5012669;28;20052;-65
2022/06/25 05:15:08;;;;;;;1.10;1.00;;;22.40;85.80;;;;;;5012981;28;20046;-65
2022/06/25 05:17:34;;;;;;;1.40;1.00;;;22.40;85.70;;;;;;5013244;28;20479;-65
2022/06/25 05:20:00;;;;;;;0.95;0.88;;;22.40;85.70;;;;;;5013343;28;20434;-65
2022/06/25 05:22:26;;;;;;;1.50;1.17;;;22.40;85.70;;;;;;4995803;28;20049;-64
2022/06/25 05:24:52;;;;;;;0.90;0.90;;;22.40;85.70;;;;;;5012709;28;20053;-65
2022/06/25 05:27:18;;;;;;;1.10;1.00;;;22.40;85.70;;;;;;5013186;28;20046;-65
2022/06/25 05:29:44;;;;;;;0.82;0.82;;;22.40;85.70;;;;;;5012098;28;20092;-65
2022/06/25 05:32:09;;;;;;;1.10;1.00;;;22.40;85.70;;;;;;5013337;28;20045;-65
2022/06/25 05:34:35;;;;;;;1.02;0.93;;;22.40;85.70;;;;;;5012588;28;20038;-65
2022/06/25 05:37:01;;;;;;;1.10;1.00;;;22.40;85.70;;;;;;5013375;28;20046;-65
2022/06/25 05:39:26;;;;;;;1.13;1.00;;;22.40;85.70;;;;;;5011754;28;20049;-64
2022/06/25 05:41:52;;;;;;;0.98;0.95;;;22.50;85.80;;;;;;5013420;28;20052;-65
2022/06/25 05:44:18;;;;;;;1.25;0.90;;;22.50;85.70;;;;;;5011988;28;20472;-65
2022/06/25 05:46:44;;;;;;;1.10;1.00;;;22.40;85.70;;;;;;5012702;28;20049;-65
2022/06/25 05:49:10;;;;;;;1.10;1.00;;;22.50;85.70;;;;;;5013006;28;20085;-65
2022/06/25 05:51:36;;;;;;;1.10;1.00;;;22.40;85.70;;;;;;5012681;28;20475;-65
2022/06/25 05:54:01;;;;;;;0.80;0.80;;;22.50;85.70;;;;;;5012243;28;20038;-64
2022/06/25 05:56:27;;;;;;;1.00;1.00;;;22.50;85.70;;;;;;5012478;28;20045;-64
2022/06/25 05:58:53;;;;;;;1.20;1.10;;;22.50;85.70;;;;;;5012168;28;20120;-65
2022/06/25 06:01:19;;;;;;;1.73;1.10;;;22.50;85.70;;;;;;5012805;28;20541;-65
2022/06/25 06:03:44;;;;;;;1.10;1.00;;;22.50;85.70;;;;;;5011794;28;20101;-65
2022/06/25 06:06:10;;;;;;;1.02;1.00;;;22.50;85.70;;;;;;5012782;28;20054;-65
2022/06/25 06:08:35;;;;;;;1.25;1.02;;;22.50;85.70;;;;;;5012179;28;20095;-65
2022/06/25 06:11:01;;;;;;;0.80;0.80;;;22.50;85.70;;;;;;5011736;28;20084;-65
2022/06/25 06:13:27;;;;;;;0.98;0.85;;;22.50;85.70;;;;;;5012149;28;20081;-65
2022/06/25 06:15:52;;;;;;;0.98;0.90;;;22.50;85.70;;;;;;5011813;28;20045;-65
2022/06/25 06:18:18;;;;;;;1.20;1.10;;;22.50;85.70;;;;;;5012975;28;20526;-65
2022/06/25 06:20:44;;;;;;;1.13;1.02;;;22.60;85.70;;;;;;5011728;28;20045;-65
2022/06/25 06:23:09;;;;;;;1.00;1.00;;;22.60;85.70;;;;;;5012566;28;20049;-65
2022/06/25 06:25:35;;;;;;;1.02;1.00;;;22.60;85.70;;;;;;5011007;28;20076;-65
2022/06/25 06:28:01;;;;;;;1.42;1.02;;;22.60;85.70;;;;;;5012243;28;20054;-64
2022/06/25 06:30:26;;;;;;;1.08;0.98;;;22.60;85.80;;;;;;4994220;28;20745;-65
2022/06/25 06:32:52;;;;;;;1.48;1.10;;;22.60;85.70;;;;;;4994380;28;20046;-65
2022/06/25 06:35:18;;;;;;;1.20;1.05;;;22.60;85.70;;;;;;5011855;28;20081;-65
2022/06/25 06:37:44;;;;;;;0.90;0.90;;;22.60;85.70;;;;;;5011872;28;20100;-65
2022/06/25 06:40:10;;;;;;;1.25;1.00;;;22.60;85.60;;;;;;5011174;28;20184;-65
2022/06/25 06:42:36;;;;;;;1.27;1.15;;;22.60;85.60;;;;;;5011743;28;20045;-65
2022/06/25 06:45:03;;;;;;;1.00;1.00;;;22.60;85.60;;;;;;5011044;28;20550;-65
2022/06/25 06:47:29;;;;;;;1.95;1.23;;;22.60;85.60;;;;;;5011910;28;20499;-65
2022/06/25 06:49:54;;;;;;;0.95;0.93;;;22.60;85.70;;;;;;5011532;28;20050;-65
2022/06/25 06:52:20;;;;;;;0.95;0.90;;;22.60;85.60;;;;;;5012133;28;20498;-65
2022/06/25 06:54:46;;;;;;;1.00;0.90;;;22.60;85.60;;;;;;5010369;28;20124;-65
2022/06/25 06:57:12;;;;;;;2.13;1.00;;;22.60;85.60;;;;;;4978442;28;20133;-65
2022/06/25 06:59:38;;;;;;;0.90;0.90;;;22.60;85.60;;;;;;5010376;28;20068;-65
2022/06/25 07:02:04;;;;;;;0.75;0.75;;;22.60;85.60;;;;;;5011856;28;20041;-65
2022/06/25 07:04:29;;;;;;;1.40;0.90;;;22.60;85.60;;;;;;5011736;28;20116;-65
2022/06/25 07:06:55;;;;;;;0.90;0.90;;;22.60;85.60;;;;;;4994087;28;20046;-65
2022/06/25 07:09:21;;;;;;;1.10;0.82;;;22.60;85.60;;;;;;5010518;28;20104;-65
2022/06/25 07:11:47;;;;;;;1.50;0.98;;;22.60;85.60;;;;;;5011102;28;20045;-65
2022/06/25 07:14:13;;;;;;;0.90;0.80;;;22.70;85.60;;;;;;5010425;28;20061;-65
2022/06/25 07:16:39;;;;;;;0.90;0.88;;;22.70;85.60;;;;;;5010338;28;20096;-65
2022/06/25 07:19:05;;;;;;;0.80;0.80;;;22.70;85.60;;;;;;5011435;28;20038;-64
2022/06/25 07:21:31;;;;;;;0.93;0.90;;;22.70;85.60;;;;;;5011643;28;20045;-65
2022/06/25 07:23:57;;;;;;;0.90;0.85;;;22.70;85.60;;;;;;5010266;28;20164;-64
2022/06/25 07:26:23;;;;;;;5.40;0.93;;;22.70;85.60;;;;;;5011051;28;20041;-65
2022/06/25 07:28:52;;;;;;;1.10;0.95;;;22.70;85.60;;;;;;5010025;28;20054;-65
2022/06/25 07:31:17;;;;;;;1.10;1.00;;;22.70;85.60;;;;;;5011275;28;20049;-65
2022/06/25 07:33:43;;;;;;;1.25;0.93;;;22.70;85.60;;;;;;5010877;28;20053;-65
2022/06/25 07:36:09;;;;;;;1.85;1.38;;;22.70;85.60;;;;;;5011194;28;20477;-65
2022/06/25 07:38:35;;;;;;;1.00;0.90;;;22.70;85.60;;;;;;5010798;28;20523;-65
2022/06/25 07:41:01;;;;;;;1.05;0.98;;;22.70;85.50;;;;;;5009725;28;20065;-65
2022/06/25 07:43:27;;;;;;;1.10;1.00;;;22.70;85.50;;;;;;5010775;28;20050;-65
2022/06/25 07:45:57;;;;;;;1.10;1.00;;;22.70;85.50;;;;;;4976722;28;20056;-65
2022/06/25 07:48:23;;;;;;;1.85;1.00;;;22.70;85.50;;;;;;5011224;28;20484;-65
2022/06/25 07:53:33;;;;;;;1.10;1.00;;;22.70;85.50;;;;;;5011047;28;20399;-65
2022/06/25 07:55:59;;;;;;;1.20;1.10;;;22.70;85.50;;;;;;5009744;28;20042;-65
2022/06/25 07:58:26;;;;;;;1.83;1.08;;;22.70;85.50;;;;;;5010668;28;20133;-65
2022/06/25 08:00:52;;;;;;;1.10;0.95;;;22.70;85.50;;;;;;5010001;28;20131;-64
2022/06/25 08:03:18;;;;;;;1.10;1.00;;;22.70;85.50;;;;;;5011048;28;20048;-65
2022/06/25 08:05:44;;;;;;;1.00;1.00;;;22.70;85.50;;;;;;5010403;28;20044;-65
2022/06/25 08:08:10;;;;;;;1.05;0.75;;;22.70;85.50;;;;;;5010952;28;20049;-64
2022/06/25 08:10:36;;;;;;;0.80;0.80;;;22.70;85.40;;;;;;5009785;28;20126;-65
2022/06/25 08:13:02;;;;;;;0.70;0.70;;;22.70;85.50;;;;;;5010392;28;20053;-64
2022/06/25 08:15:28;;;;;;;1.15;0.90;;;22.70;85.40;;;;;;4976452;28;20038;-65
2022/06/25 08:17:53;;;;;;;1.63;1.02;;;22.80;85.50;;;;;;5010440;28;20038;-65
2022/06/25 08:20:19;;;;;;;1.02;0.93;;;22.70;85.40;;;;;;5010881;28;20085;-64
2022/06/25 08:22:45;;;;;;;0.70;0.70;;;22.70;85.40;;;;;;4992959;28;20390;-64
2022/06/25 08:25:11;;;;;;;1.15;0.90;;;22.80;85.50;;;;;;5009774;28;20491;-65
2022/06/25 08:27:49;;;;;;;0.98;0.80;;;22.80;85.50;;;;;;5013504;28;20044;-65
2022/06/25 08:30:15;;;;;;;1.13;0.90;;;22.80;85.50;;;;;;5013731;28;20042;-65
2022/06/25 08:32:40;;;;;;;0.90;0.90;;;22.80;85.50;;;;;;5011185;28;20064;-64
2022/06/25 08:35:07;;;;;;;1.13;0.82;;;22.70;85.40;;;;;;4996429;28;20073;-65
2022/06/25 08:37:39;;;;;;;0.77;0.77;;;22.80;85.50;;;;;;4996979;28;20046;-65
2022/06/25 08:40:08;;;;;;;1.83;1.05;;;22.70;85.40;;;;;;5013259;28;20041;-65
2022/06/25 08:42:35;;;;;;;1.48;1.02;;;22.80;85.50;;;;;;5014594;28;20054;-65
2022/06/25 08:45:01;;;;;;;1.02;0.93;;;22.80;85.50;;;;;;5012901;28;20045;-65
2022/06/25 08:47:27;;;;;;;0.77;0.77;;;22.80;85.40;;;;;;5014200;28;20045;-65
2022/06/25 08:49:53;;;;;;;1.13;0.90;;;22.80;85.40;;;;;;5013944;28;20046;-64
2022/06/25 08:52:19;;;;;;;2.13;1.10;;;22.80;85.40;;;;;;5014455;28;20100;-65
2022/06/25 08:54:48;;;;;;;0.98;0.80;;;22.80;85.40;;;;;;5012614;28;20042;-64
2022/06/25 08:57:14;;;;;;;1.63;1.10;;;22.80;85.40;;;;;;5014154;28;20045;-65
2022/06/25 08:59:41;;;;;;;1.48;0.90;;;22.80;85.40;;;;;;5013208;28;20053;-65
2022/06/25 09:02:06;;;;;;;1.00;1.00;;;22.80;85.40;;;;;;5013913;28;20045;-65
2022/06/25 09:04:32;;;;;;;1.40;1.00;;;22.80;85.40;;;;;;5013962;28;20041;-64
2022/06/25 09:07:14;;;;;;;0.93;0.93;;;22.80;85.40;;;;;;5013905;28;20041;-65
2022/06/25 09:09:44;;;;;;;0.90;0.88;;;22.80;85.50;;;;;;5012678;28;20042;-65
2022/06/25 09:12:14;;;;;;;1.13;0.93;;;22.80;85.40;;;;;;5014053;28;20069;-65
2022/06/25 09:14:40;;;;;;;1.15;1.00;;;22.80;85.40;;;;;;5012890;28;20099;-65
2022/06/25 09:17:14;;;;;;;1.00;0.90;;;22.80;85.40;;;;;;5013158;28;20115;-64
2022/06/25 09:19:49;;;;;;;0.90;0.90;;;22.80;85.40;;;;;;5013721;28;20042;-65
2022/06/25 09:22:24;;;;;;;0.80;0.80;;;22.80;85.40;;;;;;5013939;28;20145;-65
2022/06/25 09:24:55;;;;;;;1.30;1.05;;;22.80;85.40;;;;;;4994937;28;20383;-64
2022/06/25 09:27:42;;;;;;;1.02;0.90;;;22.80;85.40;;;;;;5013585;28;20133;-65
2022/06/25 09:30:12;;;;;;;1.00;0.90;;;22.80;85.40;;;;;;5011729;28;20046;-65
2022/06/25 09:32:43;;;;;;;1.45;1.02;;;22.80;85.40;;;;;;5013425;28;20049;-65
2022/06/25 09:35:10;;;;;;;1.13;1.00;;;22.80;85.60;;;;;;4995504;28;20133;-65
2022/06/25 09:37:36;;;;;;;1.05;0.98;;;22.80;85.40;;;;;;4995462;28;20104;-65
2022/06/25 09:40:02;;;;;;;1.20;0.95;;;22.80;85.40;;;;;;4993868;28;20046;-65
2022/06/25 09:42:30;;;;;;;1.13;0.80;;;22.80;85.40;;;;;;5012864;28;20434;-65
2022/06/25 09:45:11;;;;;;;1.10;0.85;;;22.80;85.40;;;;;;5011960;28;20125;-65
2022/06/25 09:47:44;;;;;;;1.10;1.00;;;22.80;85.40;;;;;;5013207;28;20042;-65
2022/06/25 09:50:15;;;;;;;1.20;1.10;;;22.80;85.40;;;;;;5013008;28;20044;-65
2022/06/25 09:52:55;;;;;;;0.88;0.80;;;22.80;85.40;;;;;;5013225;28;20127;-65
2022/06/25 09:55:23;;;;;;;0.95;0.90;;;22.80;85.40;;;;;;5011889;28;20088;-64
2022/06/25 09:57:51;;;;;;;1.13;1.02;;;22.80;85.30;;;;;;5012746;28;20054;-64
2022/06/25 10:00:18;;;;;;;0.95;0.95;;;22.80;85.30;;;;;;5012003;28;20054;-65
2022/06/25 10:02:46;;;;;;;2.55;0.80;;;22.80;85.40;;;;;;4995554;28;20042;-65
2022/06/25 10:05:13;;;;;;;0.80;0.80;;;22.80;85.40;;;;;;5012574;28;20046;-64
2022/06/25 10:08:00;;;;;;;1.00;0.90;;;22.80;85.40;;;;;;4995580;28;20052;-65
2022/06/25 10:10:31;;;;;;;0.75;0.75;;;22.80;85.40;;;;;;5011770;28;20399;-65
2022/06/25 10:12:56;;;;;;;0.90;0.90;;;22.80;85.30;;;;;;5012424;28;20049;-65
2022/06/25 10:15:23;;;;;;;0.88;0.82;;;22.80;85.30;;;;;;4993882;28;20387;-64
2022/06/25 10:17:53;;;;;;;1.02;0.93;;;22.80;85.40;;;;;;4994934;28;20049;-63
2022/06/25 10:20:20;;;;;;;1.42;0.88;;;22.80;85.30;;;;;;5012611;28;20447;-65
2022/06/25 10:22:48;;;;;;;1.08;0.93;;;22.80;85.40;;;;;;4995247;28;20384;-65
2022/06/25 10:25:17;;;;;;;1.58;1.00;;;22.80;85.30;;;;;;5011475;28;20044;-65
2022/06/25 10:27:48;;;;;;;1.00;0.95;;;22.80;85.40;;;;;;5012478;28;20049;-65
2022/06/25 10:30:35;;;;;;;1.00;1.00;;;22.80;85.30;;;;;;5011375;28;20044;-65
2022/06/25 10:33:01;;;;;;;1.17;0.75;;;22.80;85.30;;;;;;5011974;28;20081;-64
2022/06/25 10:35:29;;;;;;;0.98;0.90;;;22.80;85.30;;;;;;5012065;28;20045;-65
2022/06/25 10:38:18;;;;;;;1.38;1.23;;;22.80;85.30;;;;;;5011854;28;20045;-65
2022/06/25 10:40:53;;;;;;;0.70;0.70;;;22.80;85.30;;;;;;5011041;28;20117;-65
2022/06/25 10:43:34;;;;;;;1.67;0.98;;;22.80;85.30;;;;;;4994369;28;20062;-65
2022/06/25 10:46:18;;;;;;;0.80;0.80;;;22.80;85.40;;;;;;5011295;28;20136;-64
2022/06/25 10:48:55;;;;;;;1.60;1.00;;;22.80;85.20;;;;;;5012223;28;20041;-64
2022/06/25 10:51:51;;;;;;;0.77;0.70;;;22.80;85.20;;;;;;5012173;28;20499;-65
2022/06/25 10:54:22;;;;;;;0.82;0.82;;;22.80;85.30;;;;;;4989628;28;20057;-65
2022/06/25 10:56:50;;;;;;;0.90;0.90;;;22.80;85.20;;;;;;5012057;28;20054;-65
2022/06/25 10:59:46;;;;;;;1.13;1.02;;;22.80;85.20;;;;;;5010737;28;20049;-65
2022/06/25 11:02:15;;;;;;;1.58;0.80;;;22.80;85.30;;;;;;5011397;28;20057;-64
2022/06/25 11:04:56;;;;;;;0.98;0.80;;;22.80;85.20;;;;;;5011726;28;20038;-65
2022/06/25 11:07:25;;;;;;;1.00;0.90;;;22.80;85.20;;;;;;5012047;28;20418;-65
2022/06/25 11:10:02;;;;;;;0.73;0.73;;;22.80;85.20;;;;;;5010547;28;20434;-65
2022/06/25 11:12:34;;;;;;;0.90;0.90;;;22.80;85.20;;;;;;5011754;28;20077;-65
2022/06/25 11:15:04;;;;;;;0.88;0.88;;;22.80;85.20;;;;;;5010113;28;20057;-65
2022/06/25 11:17:31;;;;;;;0.98;0.90;;;22.90;85.20;;;;;;5011533;28;20050;-65
2022/06/25 11:20:11;;;;;;;0.88;0.88;;;22.80;85.20;;;;;;5010965;28;20048;-64
2022/06/25 11:22:48;;;;;;;0.80;0.80;;;22.90;85.30;;;;;;5011741;28;20072;-65
2022/06/25 11:30:43;;;;;;;1.27;0.80;;;22.80;85.20;;;;;;5010857;28;20081;-65
2022/06/25 11:33:09;;;;;;;1.30;1.00;;;22.80;85.10;;;;;;5010936;28;20041;-65
2022/06/25 11:35:44;;;;;;;0.60;0.60;;;22.80;85.10;;;;;;5011136;28;20112;-65
2022/06/25 11:38:20;;;;;;;1.17;0.85;;;22.80;85.20;;;;;;5010782;28;20042;-64
2022/06/25 11:40:46;;;;;;;1.13;0.90;;;22.90;85.20;;;;;;5010182;28;20116;-65
2022/06/25 11:43:14;;;;;;;1.48;0.80;;;22.80;85.20;;;;;;5010297;28;20042;-64
2022/06/25 11:45:59;;;;;;;1.23;0.90;;;22.90;85.30;;;;;;5010651;28;20053;-65
2022/06/25 11:48:29;;;;;;;0.75;0.75;;;22.90;85.40;;;;;;5011289;28;20050;-64
2022/06/25 11:50:58;;;;;;;1.48;0.85;;;22.90;85.30;;;;;;5010832;28;20135;-63
2022/06/25 11:53:24;;;;;;;1.17;0.80;;;22.90;85.30;;;;;;5010743;28;20472;-65
2022/06/25 11:56:04;;;;;;;1.15;0.88;;;22.80;85.30;;;;;;5010214;28;20038;-64
2022/06/25 11:58:35;;;;;;;0.80;0.80;;;22.90;85.40;;;;;;5010712;28;20050;-65
2022/06/25 12:01:04;;;;;;;1.27;0.70;;;22.90;85.40;;;;;;5011260;28;20122;-64
2022/06/25 12:03:31;;;;;;;0.60;0.60;;;22.90;85.40;;;;;;5017564;28;20471;-65
2022/06/25 12:06:00;;;;;;;1.33;0.85;;;22.90;85.40;;;;;;5017059;28;20371;-63
2022/06/25 12:08:27;;;;;;;0.95;0.80;;;22.90;85.40;;;;;;5017079;28;20046;-65
2022/06/25 12:10:54;;;;;;;0.80;0.80;;;22.90;85.40;;;;;;4999061;28;20124;-65
2022/06/25 12:13:20;;;;;;;0.80;0.80;;;22.90;85.40;;;;;;5016648;28;20045;-65
2022/06/25 12:15:46;;;;;;;0.80;0.80;;;22.90;85.40;;;;;;5016857;28;20085;-65
2022/06/25 12:18:13;;;;;;;0.63;0.63;;;22.90;85.40;;;;;;5016819;28;20562;-65
2022/06/25 12:20:54;;;;;;;0.77;0.77;;;22.90;85.40;;;;;;5017335;28;20042;-65
2022/06/25 12:23:20;;;;;;;2.58;0.93;;;22.90;85.50;;;;;;4999304;28;20454;-65
2022/06/25 12:25:48;;;;;;;0.60;0.60;;;22.90;85.40;;;;;;5016388;28;20128;-65
2022/06/25 12:28:13;;;;;;;0.95;0.90;;;22.90;85.50;;;;;;5016486;28;20080;-65
2022/06/25 12:30:39;;;;;;;0.80;0.80;;;22.80;85.40;;;;;;5016465;28;20089;-65
2022/06/25 12:33:13;;;;;;;0.70;0.70;;;22.90;85.50;;;;;;5016879;28;20045;-64
2022/06/25 12:35:45;;;;;;;0.95;0.80;;;22.90;85.40;;;;;;5017279;28;20045;-65
2022/06/25 12:38:13;;;;;;;0.98;0.70;;;22.90;85.40;;;;;;5016750;28;20053;-65
2022/06/25 12:40:48;;;;;;;0.82;0.80;;;22.90;85.40;;;;;;5015920;28;20058;-64
2022/06/25 12:43:17;;;;;;;0.85;0.77;;;22.90;85.40;;;;;;5016357;28;20085;-64
2022/06/25 12:45:45;;;;;;;1.00;0.88;;;22.90;85.40;;;;;;5016637;28;20073;-65
2022/06/25 12:48:12;;;;;;;0.88;0.88;;;22.90;85.40;;;;;;5016739;28;20145;-64
2022/06/25 12:50:40;;;;;;;1.05;0.70;;;22.90;85.50;;;;;;5017085;28;20125;-65
2022/06/25 12:53:12;;;;;;;1.00;0.90;;;22.90;85.40;;;;;;4999282;28;20046;-64
2022/06/25 12:55:39;;;;;;;0.60;0.60;;;22.90;85.50;;;;;;5016077;28;20048;-65
2022/06/25 12:58:10;;;;;;;0.80;0.80;;;22.90;85.50;;;;;;4998923;28;20140;-64
2022/06/25 13:00:37;;;;;;;0.82;0.82;;;22.90;85.40;;;;;;4999268;28;20132;-64
2022/06/25 13:03:07;;;;;;;0.68;0.68;;;22.90;85.50;;;;;;5016669;28;20053;-64
2022/06/25 13:05:33;;;;;;;0.90;0.90;;;22.90;85.50;;;;;;5016829;28;20085;-65
2022/06/25 13:07:59;;;;;;;1.02;0.90;;;22.90;85.50;;;;;;5017146;28;20052;-65
2022/06/25 13:10:25;;;;;;;0.93;0.85;;;22.90;85.50;;;;;;5015508;28;20085;-64